createdAt,value
2018-12-02T00:01:51.626Z,93.90
2018-12-02T00:04:22.336Z,93.70
2018-12-02T00:06:49.991Z,93.70
2018-12-02T00:09:17.605Z,93.70
2018-12-02T00:11:45.282Z,93.70
2018-12-02T00:14:14.779Z,93.70
2018-12-02T00:16:50.985Z,93.80
2018-12-02T00:19:19.820Z,93.60
2018-12-02T00:21:48.484Z,93.60
2018-12-02T00:24:18.054Z,93.60
2018-12-02T00:26:48.091Z,93.60
2018-12-02T00:29:16.060Z,93.60
2018-12-02T00:31:45.508Z,93.50
2018-12-02T00:34:17.191Z,93.50
2018-12-02T00:36:44.907Z,93.60
2018-12-02T00:39:13.020Z,93.90
2018-12-02T00:41:42.008Z,94.00
2018-12-02T00:44:15.628Z,94.00
2018-12-02T00:46:44.529Z,94.10
2018-12-02T00:49:12.791Z,94.00
2018-12-02T00:51:41.333Z,94.00
2018-12-02T00:54:10.564Z,94.20
2018-12-02T00:56:39.104Z,94.20
2018-12-02T00:59:07.166Z,94.30
2018-12-02T01:01:36.011Z,94.30
2018-12-02T01:04:03.917Z,94.10
2018-12-02T01:06:31.954Z,94.00
2018-12-02T01:09:00.646Z,94.00
2018-12-02T01:11:28.342Z,93.90
2018-12-02T01:13:56.142Z,93.90
2018-12-02T01:16:23.864Z,94.10
2018-12-02T01:18:51.611Z,94.20
2018-12-02T01:21:19.479Z,94.20
2018-12-02T01:23:47.992Z,93.80
2018-12-02T01:26:16.280Z,94.20
2018-12-02T01:28:44.487Z,94.00
2018-12-02T01:31:13.145Z,94.30
2018-12-02T01:33:42.074Z,94.50
2018-12-02T01:36:10.669Z,94.50
2018-12-02T01:38:39.008Z,94.50
2018-12-02T01:41:06.898Z,94.50
2018-12-02T01:43:34.875Z,94.60
2018-12-02T01:46:02.767Z,94.50
2018-12-02T01:48:31.780Z,94.60
2018-12-02T01:50:59.785Z,94.70
2018-12-02T01:53:27.776Z,94.70
2018-12-02T01:55:56.046Z,94.60
2018-12-02T01:58:24.041Z,94.70
2018-12-02T02:00:52.203Z,94.70
2018-12-02T02:03:20.620Z,94.60
2018-12-02T02:05:48.745Z,94.50
2018-12-02T02:08:16.987Z,94.60
2018-12-02T02:10:45.043Z,94.50
2018-12-02T02:13:12.714Z,94.60
2018-12-02T02:15:40.585Z,94.60
2018-12-02T02:18:08.395Z,94.40
2018-12-02T02:20:36.515Z,94.20
2018-12-02T02:23:04.875Z,94.30
2018-12-02T02:25:32.590Z,94.30
2018-12-02T02:28:00.446Z,94.20
2018-12-02T02:30:29.353Z,94.50
2018-12-02T02:32:57.496Z,94.70
2018-12-02T02:35:25.500Z,94.80
2018-12-02T02:37:54.334Z,94.90
2018-12-02T02:40:24.817Z,94.80
2018-12-02T02:42:52.927Z,94.90
2018-12-02T02:45:20.773Z,95.20
2018-12-02T02:47:48.627Z,95.20
2018-12-02T02:50:20.228Z,94.90
2018-12-02T02:52:51.042Z,95.10
2018-12-02T02:55:18.794Z,95.20
2018-12-02T02:57:46.992Z,94.80
2018-12-02T03:00:16.627Z,94.90
2018-12-02T03:02:44.777Z,95.00
2018-12-02T03:05:13.976Z,95.30
2018-12-02T03:07:41.737Z,95.40
2018-12-02T03:10:12.999Z,95.20
2018-12-02T03:12:41.452Z,95.30
2018-12-02T03:15:11.666Z,95.50
2018-12-02T03:17:39.835Z,95.60
2018-12-02T03:20:10.620Z,95.50
2018-12-02T03:22:39.180Z,95.50
2018-12-02T03:25:09.631Z,95.50
2018-12-02T03:27:38.208Z,95.60
2018-12-02T03:30:12.598Z,95.60
2018-12-02T03:32:41.152Z,95.50
2018-12-02T03:35:11.572Z,95.50
2018-12-02T03:37:40.180Z,95.40
2018-12-02T03:40:12.672Z,95.40
2018-12-02T03:42:41.208Z,95.50
2018-12-02T03:45:11.150Z,95.10
2018-12-02T03:47:39.967Z,95.00
2018-12-02T03:50:17.669Z,95.10
2018-12-02T03:52:45.634Z,95.40
2018-12-02T03:55:14.627Z,95.40
2018-12-02T03:57:43.831Z,95.30
2018-12-02T04:00:19.279Z,95.30
2018-12-02T04:02:48.262Z,95.50
2018-12-02T04:05:19.725Z,95.60
2018-12-02T04:07:48.676Z,95.70
2018-12-02T04:10:17.713Z,95.90
2018-12-02T04:12:48.207Z,95.90
2018-12-02T04:15:18.670Z,95.90
2018-12-02T04:17:49.469Z,95.90
2018-12-02T04:20:19.112Z,95.80
2018-12-02T04:22:48.705Z,95.60
2018-12-02T04:25:21.067Z,95.70
2018-12-02T04:27:50.394Z,95.80
2018-12-02T04:30:20.005Z,95.80
2018-12-02T04:32:50.110Z,95.90
2018-12-02T04:35:19.406Z,95.80
2018-12-02T04:37:47.610Z,96.00
2018-12-02T04:40:15.704Z,96.00
2018-12-02T04:42:44.879Z,96.20
2018-12-02T04:45:20.018Z,96.30
2018-12-02T04:47:49.065Z,96.20
2018-12-02T04:50:20.316Z,96.20
2018-12-02T04:52:49.532Z,96.00
2018-12-02T04:55:18.824Z,96.00
2018-12-02T04:57:47.863Z,96.30
2018-12-02T05:00:19.505Z,96.60
2018-12-02T05:02:49.256Z,96.80
2018-12-02T05:05:23.831Z,96.70
2018-12-02T05:07:55.265Z,96.70
2018-12-02T05:10:24.384Z,96.50
2018-12-02T05:12:52.811Z,96.40
2018-12-02T05:15:21.987Z,96.20
2018-12-02T05:17:50.875Z,96.10
2018-12-02T05:20:22.483Z,96.20
2018-12-02T05:22:52.452Z,96.20
2018-12-02T05:25:20.762Z,96.40
2018-12-02T05:27:49.805Z,96.40
2018-12-02T05:30:20.469Z,96.30
2018-12-02T05:32:51.005Z,96.20
2018-12-02T05:35:20.717Z,96.20
2018-12-02T05:37:49.320Z,96.10
2018-12-02T05:40:23.016Z,96.30
2018-12-02T05:42:52.067Z,96.30
2018-12-02T05:45:20.776Z,96.00
2018-12-02T05:47:49.213Z,96.00
2018-12-02T05:50:20.558Z,96.20
2018-12-02T05:52:50.571Z,96.20
2018-12-02T05:55:21.333Z,96.30
2018-12-02T05:57:50.089Z,96.50
2018-12-02T06:00:19.907Z,96.70
2018-12-02T06:02:48.241Z,96.50
2018-12-02T06:05:16.567Z,96.70
2018-12-02T06:07:47.190Z,96.70
2018-12-02T06:10:17.265Z,97.00
2018-12-02T06:12:46.958Z,96.60
2018-12-02T06:15:17.262Z,96.40
2018-12-02T06:17:46.400Z,96.50
2018-12-02T06:42:33.653Z,96.70
2018-12-02T06:50:55.917Z,96.80
2018-12-02T06:59:27.307Z,97.20
2018-12-02T07:02:00.945Z,97.30
2018-12-02T07:04:32.059Z,97.80
2018-12-02T07:07:08.308Z,97.50
2018-12-02T07:09:36.706Z,97.60
2018-12-02T07:12:04.703Z,97.30
2018-12-02T07:14:33.323Z,97.50
2018-12-02T07:17:03.691Z,97.40
2018-12-02T07:19:37.244Z,97.40
2018-12-02T07:22:15.617Z,97.20
2018-12-02T07:24:44.407Z,97.00
2018-12-02T07:27:14.330Z,96.90
2018-12-02T07:29:47.435Z,97.00
2018-12-02T07:32:16.995Z,97.20
2018-12-02T07:34:44.821Z,97.10
2018-12-02T07:37:16.911Z,97.10
2018-12-02T07:40:32.755Z,97.10
2018-12-02T07:43:02.505Z,96.90
2018-12-02T07:45:33.917Z,96.90
2018-12-02T07:48:10.033Z,96.70
2018-12-02T08:03:06.169Z,96.70
2018-12-02T08:05:35.059Z,96.40
2018-12-02T08:08:03.181Z,96.50
2018-12-02T08:10:31.642Z,96.60
2018-12-02T08:12:59.769Z,96.60
2018-12-02T08:15:27.696Z,96.40
2018-12-02T08:17:59.864Z,96.40
2018-12-02T08:20:28.712Z,96.50
2018-12-02T08:22:56.417Z,96.80
2018-12-02T08:25:24.215Z,96.60
2018-12-02T08:27:52.186Z,96.80
2018-12-02T08:30:22.183Z,96.80
2018-12-02T08:32:49.898Z,96.70
2018-12-02T08:35:18.975Z,96.70
2018-12-02T08:37:48.049Z,96.80
2018-12-02T08:40:16.079Z,96.90
2018-12-02T08:42:44.321Z,97.00
2018-12-02T08:45:16.021Z,96.90
2018-12-02T08:47:44.162Z,96.80
2018-12-02T08:50:16.907Z,96.90
2018-12-02T08:52:45.476Z,96.70
2018-12-02T08:55:14.381Z,97.00
2018-12-02T08:57:42.272Z,96.90
2018-12-02T09:00:12.239Z,97.00
2018-12-02T09:02:40.013Z,96.70
2018-12-02T09:05:10.001Z,96.90
2018-12-02T09:07:37.769Z,97.10
2018-12-02T09:10:37.354Z,97.00
2018-12-02T09:13:07.036Z,97.20
2018-12-02T09:15:34.912Z,96.70
2018-12-02T09:18:02.930Z,96.70
2018-12-02T09:20:32.300Z,96.70
2018-12-02T09:23:00.200Z,96.80
2018-12-02T09:25:27.847Z,96.80
2018-12-02T09:27:55.651Z,96.50
2018-12-02T09:30:26.131Z,96.70
2018-12-02T09:32:54.112Z,96.80
2018-12-02T09:35:22.127Z,97.10
2018-12-02T09:37:50.062Z,97.50
2018-12-02T09:40:17.826Z,97.90
2018-12-02T09:42:49.579Z,98.10
2018-12-02T09:45:19.435Z,98.20
2018-12-02T09:47:48.364Z,98.30
2018-12-02T09:50:17.391Z,98.40
2018-12-02T09:52:47.397Z,98.00
2018-12-02T09:55:23.746Z,97.90
2018-12-02T09:57:52.173Z,98.00
2018-12-02T10:00:20.656Z,98.00
2018-12-02T10:02:48.488Z,98.00
2018-12-02T10:05:16.327Z,98.20
2018-12-02T10:07:44.759Z,98.30
2018-12-02T10:10:22.162Z,98.30
2018-12-02T10:13:02.509Z,98.20
2018-12-02T10:15:30.382Z,98.20
2018-12-02T10:17:58.186Z,98.20
2018-12-02T10:20:25.992Z,98.20
2018-12-02T10:22:53.795Z,98.20
2018-12-02T10:27:57.159Z,98.20
2018-12-02T10:30:25.464Z,98.10
2018-12-02T10:33:02.916Z,98.10
2018-12-02T10:35:30.710Z,97.80
2018-12-02T10:37:58.488Z,97.60
2018-12-02T10:40:27.171Z,97.30
2018-12-02T10:42:54.957Z,97.20
2018-12-02T10:45:24.695Z,97.10
2018-12-02T10:47:54.366Z,96.90
2018-12-02T10:50:23.710Z,96.90
2018-12-02T10:52:52.708Z,96.90
2018-12-02T10:55:36.100Z,96.90
2018-12-02T10:58:05.963Z,96.90
2018-12-02T11:01:42.850Z,96.90
2018-12-02T11:04:10.731Z,96.90
2018-12-02T11:06:39.520Z,96.90
2018-12-02T11:09:10.872Z,96.80
2018-12-02T11:11:38.844Z,96.60
2018-12-02T11:14:06.699Z,96.60
2018-12-02T11:16:34.598Z,96.70
2018-12-02T11:21:38.815Z,96.70
2018-12-02T11:24:08.610Z,96.60
2018-12-02T11:26:36.760Z,96.70
2018-12-02T11:29:04.947Z,96.80
2018-12-02T11:31:32.770Z,96.70
2018-12-02T11:34:00.879Z,96.70
2018-12-02T11:36:29.048Z,96.40
2018-12-02T11:38:56.743Z,96.60
2018-12-02T11:41:25.695Z,96.40
2018-12-02T11:43:53.409Z,96.20
2018-12-02T11:46:21.053Z,96.00
2018-12-02T11:48:48.756Z,96.00
2018-12-02T11:51:16.501Z,96.00
2018-12-02T11:53:44.228Z,96.00
2018-12-02T11:56:11.874Z,96.00
2018-12-02T11:58:39.695Z,96.20
2018-12-02T12:01:07.160Z,96.00
2018-12-02T12:03:34.894Z,95.90
2018-12-02T12:06:02.591Z,95.90
2018-12-02T12:11:04.598Z,95.80
2018-12-02T12:13:32.438Z,95.80
2018-12-02T12:16:00.451Z,95.80
2018-12-02T12:18:28.179Z,95.70
2018-12-02T12:21:00.219Z,95.50
2018-12-02T12:23:28.904Z,95.60
2018-12-02T12:25:56.593Z,95.40
2018-12-02T12:28:26.548Z,95.30
2018-12-02T12:30:54.368Z,95.30
2018-12-02T12:33:23.278Z,95.20
2018-12-02T12:35:51.708Z,95.00
2018-12-02T12:38:19.570Z,95.00
2018-12-02T12:40:49.915Z,95.10
2018-12-02T12:43:35.739Z,95.00
2018-12-02T12:46:04.340Z,94.70
2018-12-02T12:48:33.762Z,94.90
2018-12-02T12:51:01.655Z,94.80
2018-12-02T12:53:29.855Z,94.50
2018-12-02T12:55:58.239Z,94.50
2018-12-02T12:58:26.554Z,94.40
2018-12-02T13:00:55.923Z,94.40
2018-12-02T13:03:24.210Z,94.30
2018-12-02T13:05:52.088Z,94.40
2018-12-02T13:08:22.065Z,94.30
2018-12-02T13:10:51.568Z,94.40
2018-12-02T13:13:19.960Z,94.50
2018-12-02T13:15:47.764Z,94.10
2018-12-02T13:18:16.647Z,94.20
2018-12-02T13:20:48.271Z,94.30
2018-12-02T13:23:16.567Z,94.20
2018-12-02T13:25:44.540Z,94.10
2018-12-02T13:28:12.465Z,94.20
2018-12-02T13:30:40.822Z,93.80
2018-12-02T13:33:09.449Z,93.90
2018-12-02T13:35:39.379Z,93.90
2018-12-02T13:38:12.732Z,94.10
2018-12-02T13:40:41.624Z,94.10
2018-12-02T13:43:14.860Z,94.10
2018-12-02T13:45:42.968Z,93.90
2018-12-02T13:48:10.840Z,93.90
2018-12-02T13:50:39.019Z,93.80
2018-12-02T13:53:08.951Z,94.00
2018-12-02T13:55:37.830Z,94.00
2018-12-02T13:58:06.630Z,94.10
2018-12-02T14:00:36.658Z,94.10
2018-12-02T14:03:07.792Z,93.90
2018-12-02T14:05:43.401Z,94.30
2018-12-02T14:08:12.156Z,94.40
2018-12-02T14:10:39.967Z,94.70
2018-12-02T14:13:11.263Z,94.80
2018-12-02T14:15:51.781Z,94.80
2018-12-02T14:18:25.104Z,94.80
2018-12-02T14:20:53.385Z,95.00
2018-12-02T14:23:22.184Z,94.80
2018-12-02T14:25:52.220Z,94.80
2018-12-02T14:28:26.644Z,94.80
2018-12-02T14:30:54.634Z,94.90
2018-12-02T14:33:24.551Z,94.90
2018-12-02T14:35:53.284Z,94.70
2018-12-02T14:38:21.408Z,94.80
2018-12-02T14:40:49.407Z,94.80
2018-12-02T14:43:17.890Z,94.60
2018-12-02T14:45:47.001Z,94.90
2018-12-02T14:48:16.778Z,94.80
2018-12-02T14:50:44.541Z,94.90
2018-12-02T14:53:12.354Z,94.90
2018-12-02T14:55:40.636Z,94.80
2018-12-02T14:58:11.144Z,94.70
2018-12-02T15:00:40.602Z,94.70
2018-12-02T15:03:09.990Z,94.60
2018-12-02T15:05:43.764Z,94.60
2018-12-02T15:08:13.965Z,94.70
2018-12-02T15:10:52.444Z,94.60
2018-12-02T15:13:21.156Z,94.80
2018-12-02T15:15:51.115Z,94.60
2018-12-02T15:18:21.468Z,94.80
2018-12-02T15:20:50.936Z,94.90
2018-12-02T15:23:20.499Z,95.10
2018-12-02T15:25:50.096Z,95.60
2018-12-02T15:28:19.060Z,95.90
2018-12-02T15:30:48.824Z,96.20
2018-12-02T15:33:18.873Z,96.50
2018-12-02T15:35:47.500Z,96.80
2018-12-02T15:38:16.571Z,96.90
2018-12-02T15:40:48.148Z,96.90
2018-12-02T15:43:19.004Z,97.10
2018-12-02T15:45:47.764Z,97.10
2018-12-02T15:48:21.959Z,97.10
2018-12-02T15:59:44.416Z,97.40
2018-12-02T16:05:18.943Z,97.40
2018-12-02T16:21:53.640Z,97.50
2018-12-02T16:29:58.991Z,97.50
2018-12-02T16:35:06.689Z,97.40
2018-12-02T16:37:41.091Z,97.50
2018-12-02T16:40:11.811Z,97.20
2018-12-02T16:42:44.859Z,97.60
2018-12-02T16:45:14.996Z,97.40
2018-12-02T16:47:52.956Z,97.20
2018-12-02T16:50:28.489Z,97.50
2018-12-02T16:53:20.108Z,97.10
2018-12-02T16:55:54.512Z,96.90
2018-12-02T16:58:40.667Z,96.90
2018-12-02T17:03:55.425Z,97.00
2018-12-02T17:06:25.981Z,96.90
2018-12-02T17:09:00.015Z,96.90
2018-12-02T17:17:16.186Z,96.70
2018-12-02T17:19:55.571Z,96.70
2018-12-02T17:22:34.504Z,96.60
2018-12-02T17:27:59.168Z,96.70
2018-12-02T17:30:54.517Z,96.70
2018-12-02T18:13:22.132Z,95.80
2018-12-02T18:39:05.092Z,95.40
2018-12-02T18:41:46.275Z,95.50
2018-12-02T18:47:17.810Z,95.80
2018-12-02T18:55:12.511Z,96.60
2018-12-02T18:57:47.205Z,96.40
2018-12-02T19:00:23.514Z,96.50
2018-12-02T19:02:59.834Z,96.80
2018-12-02T19:05:33.394Z,96.70
2018-12-02T19:08:07.577Z,96.60
2018-12-02T19:10:38.088Z,96.50
2018-12-02T19:13:17.644Z,96.50
2018-12-02T19:18:45.832Z,96.40
2018-12-02T19:21:30.526Z,96.30
2018-12-02T19:24:01.423Z,96.20
2018-12-02T19:26:32.666Z,96.10
2018-12-02T19:29:10.807Z,95.90
2018-12-02T19:31:38.880Z,95.90
2018-12-02T19:34:10.086Z,96.10
2018-12-02T19:36:45.075Z,96.00
2018-12-02T19:39:16.280Z,96.00
2018-12-02T19:41:49.872Z,96.00
2018-12-02T19:44:21.403Z,95.90
2018-12-02T19:46:53.632Z,95.80
2018-12-02T19:49:26.114Z,95.90
2018-12-02T19:54:49.720Z,95.70
2018-12-02T19:57:20.623Z,95.70
2018-12-02T19:59:50.103Z,95.60
2018-12-02T20:02:23.203Z,95.70
2018-12-02T20:07:31.563Z,95.70
2018-12-02T20:09:59.932Z,95.40
2018-12-02T20:12:31.103Z,95.30
2018-12-02T20:15:11.817Z,95.30
2018-12-02T20:17:42.004Z,95.30
2018-12-02T20:20:27.536Z,95.40
2018-12-02T20:23:03.659Z,95.40
2018-12-02T20:25:39.365Z,95.40
2018-12-02T20:28:20.456Z,95.30
2018-12-02T20:30:49.943Z,95.30
2018-12-02T20:33:19.150Z,95.40
2018-12-02T20:35:47.088Z,95.30
2018-12-02T20:38:20.575Z,95.30
2018-12-02T20:40:50.247Z,95.60
2018-12-02T20:43:22.905Z,96.00
2018-12-02T20:46:12.020Z,96.50
2018-12-02T20:48:54.472Z,96.70
2018-12-02T20:51:25.095Z,96.90
2018-12-02T20:53:57.205Z,97.00
2018-12-02T20:56:24.897Z,96.90
2018-12-02T20:58:54.772Z,97.10
2018-12-02T21:01:22.438Z,97.00
2018-12-02T21:06:36.938Z,96.90
2018-12-02T21:09:08.352Z,96.90
2018-12-02T21:11:40.630Z,96.80
2018-12-02T21:14:06.484Z,96.60
2018-12-02T21:16:34.846Z,96.60
2018-12-02T21:19:09.584Z,96.40
2018-12-02T21:21:43.095Z,96.20
2018-12-02T21:24:21.168Z,96.00
2018-12-02T21:26:50.111Z,96.10
2018-12-02T21:29:19.166Z,95.90
2018-12-02T21:31:50.165Z,95.80
2018-12-02T21:34:31.721Z,95.80
2018-12-02T21:37:02.140Z,95.90
2018-12-02T21:39:32.324Z,95.80
2018-12-02T21:42:14.605Z,95.80
2018-12-02T21:44:50.271Z,95.80
2018-12-02T21:47:21.449Z,95.80
2018-12-02T21:49:55.770Z,95.80
2018-12-02T21:52:23.541Z,95.70
2018-12-02T21:54:52.079Z,95.60
2018-12-02T21:59:59.461Z,95.60
2018-12-02T22:02:27.152Z,95.40
2018-12-02T22:04:54.863Z,95.50
2018-12-02T22:07:22.944Z,95.50
2018-12-02T22:09:51.751Z,95.50
2018-12-02T22:12:20.893Z,95.40
2018-12-02T22:14:49.847Z,95.40
2018-12-02T22:17:17.827Z,95.50
2018-12-02T22:19:46.424Z,95.30
2018-12-02T22:22:14.866Z,95.40
2018-12-02T22:24:48.832Z,95.30
2018-12-02T22:27:19.373Z,95.20
2018-12-02T22:29:49.487Z,95.10
2018-12-02T22:32:17.937Z,95.10
2018-12-02T22:34:46.369Z,95.30
2018-12-02T22:37:14.772Z,95.10
2018-12-02T22:39:42.687Z,95.10
2018-12-02T22:42:10.631Z,94.90
2018-12-02T22:44:39.407Z,94.90
2018-12-02T22:47:07.298Z,94.80
2018-12-02T22:49:35.247Z,94.90
2018-12-02T22:52:03.159Z,95.00
2018-12-02T22:54:30.935Z,95.00
2018-12-02T22:57:01.268Z,94.80
2018-12-02T23:02:13.744Z,94.50
2018-12-02T23:04:42.256Z,94.50
2018-12-02T23:07:10.992Z,94.50
2018-12-02T23:09:39.225Z,94.30
2018-12-02T23:12:07.093Z,94.30
2018-12-02T23:14:34.967Z,94.30
2018-12-02T23:17:20.059Z,94.30
2018-12-02T23:19:48.007Z,94.20
2018-12-02T23:22:16.080Z,94.40
2018-12-02T23:24:44.003Z,94.50
2018-12-02T23:36:01.962Z,94.60
2018-12-02T23:38:29.898Z,94.80
2018-12-02T23:40:58.053Z,94.90
2018-12-02T23:43:26.688Z,95.00
2018-12-02T23:45:54.858Z,95.00
2018-12-02T23:48:22.809Z,94.90
2018-12-02T23:50:50.779Z,95.00
2018-12-02T23:53:18.726Z,94.90
2018-12-02T23:55:46.590Z,94.90
2018-12-02T23:58:14.463Z,94.90
